createdAt,value
2023-05-01T00:00:24.416Z,65.9
2023-05-01T00:12:24.504Z,66.3
2023-05-01T00:24:24.542Z,64.8
2023-05-01T00:36:24.424Z,66.5
2023-05-01T00:48:24.525Z,67.4
2023-05-01T01:00:24.537Z,67.6
2023-05-01T01:12:24.521Z,66.8
2023-05-01T01:24:24.508Z,67.1
2023-05-01T01:36:24.425Z,67.3
2023-05-01T01:48:24.425Z,67.0
2023-05-01T02:00:24.535Z,66.5
2023-05-01T02:12:24.516Z,67.5
2023-05-01T02:24:24.539Z,68.9
2023-05-01T02:36:24.428Z,69.7
2023-05-01T02:48:24.418Z,69.3
2023-05-01T03:00:24.535Z,69.0
2023-05-01T03:12:24.514Z,68.7
2023-05-01T03:24:24.513Z,69.9
2023-05-01T03:36:24.505Z,69.1
2023-05-01T03:48:24.548Z,70.5
2023-05-01T04:00:24.428Z,70.3
2023-05-01T04:12:24.522Z,70.0
2023-05-01T04:24:24.454Z,67.9
2023-05-01T04:36:24.435Z,67.1
2023-05-01T04:48:24.418Z,67.1
2023-05-01T05:00:24.443Z,67.5
2023-05-01T05:12:24.511Z,68.3
2023-05-01T05:24:24.538Z,67.3
2023-05-01T05:36:24.518Z,68.6
2023-05-01T05:48:24.443Z,66.7
2023-05-01T06:00:24.536Z,66.7
2023-05-01T06:12:24.435Z,66.6
2023-05-01T06:24:24.519Z,64.6
2023-05-01T06:36:24.491Z,63.4
2023-05-01T06:48:24.519Z,64.5
2023-05-01T07:00:24.535Z,63.6
2023-05-01T07:12:24.452Z,63.4
2023-05-01T07:24:24.428Z,60.8
2023-05-01T07:36:24.552Z,59.7
2023-05-01T07:48:24.422Z,55.4
2023-05-01T08:00:24.584Z,57.3
2023-05-01T08:12:24.418Z,58.6
2023-05-01T08:24:24.468Z,55.2
2023-05-01T08:36:24.517Z,55.4
2023-05-01T08:48:24.419Z,52.5
2023-05-01T09:00:24.425Z,50.9
2023-05-01T09:12:24.554Z,49.1
2023-05-01T09:24:24.421Z,52.1
2023-05-01T09:36:24.607Z,52.9
2023-05-01T09:48:24.497Z,53.0
2023-05-01T10:00:24.427Z,48.7
2023-05-01T10:12:24.515Z,50.6
2023-05-01T10:24:24.445Z,52.6
2023-05-01T10:36:24.436Z,55.8
2023-05-01T10:48:24.421Z,48.2
2023-05-01T11:00:24.429Z,48.5
2023-05-01T11:12:24.480Z,47.7
2023-05-01T11:24:24.487Z,48.4
2023-05-01T11:36:24.505Z,47.9
2023-05-01T11:48:24.527Z,43.7
2023-05-01T12:00:24.518Z,42.4
2023-05-01T12:12:24.554Z,41.4
2023-05-01T12:24:24.429Z,43.0
2023-05-01T12:36:24.421Z,39.2
2023-05-01T12:48:24.513Z,37.5
2023-05-01T13:00:24.501Z,40.5
2023-05-01T13:12:24.418Z,42.5
2023-05-01T13:24:24.493Z,45.5
2023-05-01T13:36:26.213Z,46.0
2023-05-01T13:48:24.443Z,46.7
2023-05-01T14:00:24.494Z,44.8
2023-05-01T14:12:24.464Z,44.7
2023-05-01T14:24:24.464Z,42.3
2023-05-01T14:36:24.427Z,45.8
2023-05-01T14:48:24.480Z,50.8
2023-05-01T15:00:24.421Z,49.2
2023-05-01T15:12:24.433Z,52.7
2023-05-01T15:24:24.454Z,56.2
2023-05-01T15:36:24.463Z,50.1
2023-05-01T15:48:24.469Z,49.1
2023-05-01T16:00:24.448Z,48.6
2023-05-01T16:12:24.452Z,46.7
2023-05-01T16:24:24.514Z,50.8
2023-05-01T16:36:24.423Z,56.1
2023-05-01T16:48:24.466Z,64.6
2023-05-01T17:00:24.526Z,67.0
2023-05-01T17:12:24.442Z,69.1
2023-05-01T17:24:24.845Z,68.2
2023-05-01T17:36:24.423Z,66.8
2023-05-01T17:48:24.452Z,65.3
2023-05-01T18:00:24.532Z,65.4
2023-05-01T18:12:24.515Z,65.0
2023-05-01T18:24:24.418Z,70.1
2023-05-01T18:36:24.434Z,70.7
2023-05-01T18:48:24.532Z,72.5
2023-05-01T19:00:24.556Z,73.5
2023-05-01T19:12:24.417Z,74.6
2023-05-01T19:24:24.510Z,75.6
2023-05-01T19:36:24.481Z,76.5
2023-05-01T19:48:24.418Z,77.0
2023-05-01T20:00:24.417Z,76.6
2023-05-01T20:12:24.419Z,77.9
2023-05-01T20:24:24.416Z,80.6
2023-05-01T20:36:25.439Z,81.5
2023-05-01T20:48:24.544Z,80.2
2023-05-01T21:00:24.510Z,80.6
2023-05-01T21:12:24.430Z,81.1
2023-05-01T21:24:24.513Z,81.2
2023-05-01T21:36:24.428Z,81.6
2023-05-01T21:48:24.625Z,82.9
2023-05-01T22:00:24.429Z,83.6
2023-05-01T22:12:24.439Z,85.0
2023-05-01T22:24:24.810Z,85.1
2023-05-01T22:36:24.512Z,86.0
2023-05-01T22:48:24.427Z,86.4
2023-05-01T23:00:24.518Z,85.3
2023-05-01T23:12:24.448Z,85.4
2023-05-01T23:24:24.539Z,87.3
2023-05-01T23:36:24.419Z,88.2
2023-05-01T23:48:24.524Z,90.0
